Time;durP1;ratioP1;P1;durP2;ratioP2;P2;SDS_P1;SDS_P2;PMS_P1;PMS_P2;Temp;Humidity;BMP_temperature;BMP_pressure;BME280_temperature;BME280_humidity;BME280_pressure;Samples;Min_cycle;Max_cycle;Signal;HPM_P1;HPM_P2
2023/10/31 00:01:46;;;;;;;11.98;3.92;;;460.80;2380.80;;;;;;5081726;28;20056;-74
2023/10/31 00:04:11;;;;;;;10.40;3.78;;;436.10;2355.20;;;;;;5082565;28;20445;-75
2023/10/31 00:06:37;;;;;;;14.40;4.15;;;436.10;2355.20;;;;;;5064151;28;20047;-75
2023/10/31 00:09:03;;;;;;;9.20;3.60;;;436.10;2355.20;;;;;;5084499;28;20066;-75
2023/10/31 00:11:29;;;;;;;7.63;3.70;;;436.00;2355.20;;;;;;5080987;28;20016;-76
2023/10/31 00:13:55;;;;;;;11.93;4.82;;;436.00;2355.20;;;;;;5079931;28;20526;-75
2023/10/31 00:16:20;;;;;;;9.98;3.38;;;436.00;2355.20;;;;;;5069447;28;20486;-75
2023/10/31 00:18:46;;;;;;;7.55;3.25;;;436.00;2355.20;;;;;;5084750;28;20158;-74
2023/10/31 00:21:12;;;;;;;7.80;2.70;;;436.00;2355.20;;;;;;5073796;28;20513;-74
2023/10/31 00:23:47;;;;;;;12.25;3.55;;;436.10;2355.20;;;;;;5085241;28;20031;-76
2023/10/31 00:26:14;;;;;;;8.40;3.15;;;460.80;2380.80;;;;;;5093632;28;20016;-74
2023/10/31 00:28:40;;;;;;;9.23;3.60;;;460.80;2380.80;;;;;;5093339;28;20493;-75
2023/10/31 00:31:07;;;;;;;12.70;4.00;;;436.10;2355.20;;;;;;5093694;28;20028;-75
2023/10/31 00:33:37;;;;;;;8.57;3.63;;;436.10;2355.20;;;;;;5075481;28;20397;-76
2023/10/31 00:36:03;;;;;;;12.52;4.07;;;436.00;2355.20;;;;;;5093523;28;20039;-75
2023/10/31 00:38:29;;;;;;;8.50;3.53;;;435.90;2355.20;;;;;;5093931;28;20016;-75
2023/10/31 00:40:55;;;;;;;5.53;3.35;;;435.90;2355.20;;;;;;5093164;28;20492;-75
2023/10/31 00:43:21;;;;;;;12.45;3.92;;;435.90;2355.20;;;;;;5093317;28;20024;-76
2023/10/31 00:45:46;;;;;;;6.85;3.78;;;435.90;2355.20;;;;;;5092784;28;20050;-75
2023/10/31 00:48:12;;;;;;;6.18;3.58;;;435.90;2355.20;;;;;;5092864;28;20402;-75
2023/10/31 00:50:38;;;;;;;10.40;3.95;;;435.80;2355.20;;;;;;5092857;28;20028;-75
2023/10/31 00:53:04;;;;;;;9.82;3.47;;;435.80;2355.20;;;;;;5093150;28;20574;-76
2023/10/31 00:55:29;;;;;;;7.60;3.28;;;435.80;2355.20;;;;;;5093128;28;20031;-74
2023/10/31 00:57:55;;;;;;;10.40;3.60;;;435.80;2355.20;;;;;;5081802;28;20556;-76
2023/10/31 01:00:21;;;;;;;7.32;3.30;;;435.80;2355.20;;;;;;5090892;28;20032;-75
2023/10/31 01:02:47;;;;;;;9.90;3.38;;;435.80;2355.20;;;;;;5093015;28;20024;-74
2023/10/31 01:05:12;;;;;;;12.02;4.47;;;435.80;2355.20;;;;;;5092948;28;20064;-75
2023/10/31 01:07:38;;;;;;;8.32;3.45;;;435.90;2355.20;;;;;;5092926;28;20118;-75
2023/10/31 01:10:04;;;;;;;7.45;3.45;;;435.90;2355.20;;;;;;5074889;28;20119;-77
2023/10/31 01:12:30;;;;;;;6.47;3.33;;;435.90;2355.20;;;;;;5092735;28;20024;-74
2023/10/31 01:14:56;;;;;;;11.48;4.22;;;435.80;2355.20;;;;;;5092585;28;20020;-76
2023/10/31 01:17:22;;;;;;;8.00;3.88;;;435.80;2355.20;;;;;;5074919;28;20027;-76
2023/10/31 01:19:48;;;;;;;8.65;3.85;;;435.80;2355.20;;;;;;5092610;28;20020;-75
2023/10/31 01:22:14;;;;;;;13.18;4.20;;;435.80;2355.20;;;;;;5093035;28;20484;-75
2023/10/31 01:24:39;;;;;;;8.43;4.05;;;435.70;2355.20;;;;;;5088277;28;20036;-75
2023/10/31 01:27:05;;;;;;;12.13;4.38;;;435.70;2355.20;;;;;;5065534;28;20123;-76
2023/10/31 01:29:31;;;;;;;9.32;5.38;;;435.70;2355.20;;;;;;5092560;28;20109;-76
2023/10/31 01:31:57;;;;;;;8.70;6.25;;;435.70;2355.20;;;;;;5074572;28;20028;-76
2023/10/31 01:34:23;;;;;;;11.57;9.23;;;435.70;2355.20;;;;;;5092798;28;20111;-76
2023/10/31 01:36:49;;;;;;;18.95;11.48;;;435.70;2355.20;;;;;;5092857;28;20020;-76
2023/10/31 01:39:14;;;;;;;17.45;10.55;;;435.70;2355.20;;;;;;5092328;28;20023;-75
2023/10/31 01:41:43;;;;;;;13.30;8.18;;;435.70;2355.20;;;;;;5092566;28;20473;-76
2023/10/31 01:44:10;;;;;;;11.15;6.85;;;435.80;2355.20;;;;;;5092650;28;20058;-75
2023/10/31 01:46:36;;;;;;;9.07;5.03;;;435.80;2355.20;;;;;;5092880;28;20024;-75
2023/10/31 01:49:02;;;;;;;7.63;4.45;;;435.80;2355.20;;;;;;5092351;28;20560;-75
2023/10/31 01:51:28;;;;;;;8.45;3.58;;;435.80;2355.20;;;;;;5085808;28;20063;-76
2023/10/31 01:53:55;;;;;;;5.05;2.83;;;435.80;2355.20;;;;;;5092536;28;20118;-75
2023/10/31 01:56:21;;;;;;;8.07;3.13;;;435.90;2355.20;;;;;;5092675;28;20077;-75
2023/10/31 01:58:48;;;;;;;12.70;3.70;;;436.00;2355.20;;;;;;5096082;28;20028;-76
2023/10/31 02:01:14;;;;;;;14.65;3.83;;;436.00;2355.20;;;;;;5096087;28;20517;-75
2023/10/31 02:03:40;;;;;;;9.65;3.67;;;436.00;2355.20;;;;;;5096299;28;20081;-75
2023/10/31 02:06:06;;;;;;;8.55;3.78;;;436.00;2355.20;;;;;;5096184;28;20040;-75
2023/10/31 02:08:32;;;;;;;7.93;3.33;;;436.00;2355.20;;;;;;5064394;28;20040;-75
2023/10/31 02:10:58;;;;;;;7.18;3.10;;;436.00;2355.20;;;;;;5095693;28;20020;-75
2023/10/31 02:13:23;;;;;;;7.90;3.33;;;436.10;2355.20;;;;;;5095931;28;20047;-75
2023/10/31 02:15:49;;;;;;;7.07;3.50;;;460.80;2380.80;;;;;;5095753;28;20020;-75
2023/10/31 02:18:15;;;;;;;12.20;4.30;;;460.80;2380.80;;;;;;5096079;28;20027;-74
2023/10/31 02:20:41;;;;;;;6.63;3.67;;;460.80;2380.80;;;;;;5095668;28;20032;-75
2023/10/31 02:23:07;;;;;;;10.85;5.55;;;436.10;2355.20;;;;;;5095410;28;20023;-76
2023/10/31 02:25:33;;;;;;;17.38;5.95;;;436.10;2355.20;;;;;;5095820;28;20032;-74
2023/10/31 02:27:59;;;;;;;9.23;6.47;;;460.80;2380.80;;;;;;5095335;28;20398;-75
2023/10/31 02:30:25;;;;;;;14.57;7.75;;;436.10;2355.20;;;;;;5095601;28;20024;-76
2023/10/31 02:32:51;;;;;;;17.45;8.27;;;436.10;2355.20;;;;;;5095033;28;20028;-76
2023/10/31 02:35:18;;;;;;;14.07;8.68;;;436.10;2355.20;;;;;;5095731;28;20024;-76
2023/10/31 02:37:45;;;;;;;11.73;6.72;;;436.10;2355.20;;;;;;5095407;28;20130;-76
2023/10/31 02:40:11;;;;;;;12.15;7.00;;;460.80;2380.80;;;;;;5083408;28;20020;-75
2023/10/31 02:42:37;;;;;;;10.18;5.68;;;460.80;2380.80;;;;;;5093688;28;20024;-75
2023/10/31 02:45:03;;;;;;;13.73;5.32;;;460.80;2380.80;;;;;;5095424;28;20027;-76
2023/10/31 02:47:29;;;;;;;11.05;5.40;;;460.80;2380.80;;;;;;5076764;28;20386;-75
2023/10/31 02:49:55;;;;;;;10.73;4.88;;;460.90;2380.80;;;;;;5095192;28;20020;-76
2023/10/31 02:52:21;;;;;;;13.25;5.50;;;460.90;2380.80;;;;;;5081822;28;20505;-74
2023/10/31 02:54:47;;;;;;;12.25;5.68;;;460.90;2380.80;;;;;;5075053;28;20111;-76
2023/10/31 02:57:12;;;;;;;10.10;5.38;;;460.80;2380.80;;;;;;5074688;28;20024;-76
2023/10/31 02:59:38;;;;;;;11.60;5.97;;;460.80;2380.80;;;;;;5074547;28;20024;-75
2023/10/31 03:02:04;;;;;;;12.05;3.92;;;460.80;2380.80;;;;;;5056209;28;20082;-75
2023/10/31 03:04:29;;;;;;;9.48;3.58;;;460.80;2380.80;;;;;;5074874;28;20070;-75
2023/10/31 03:06:55;;;;;;;9.50;3.28;;;460.80;2380.80;;;;;;5072722;28;20515;-76
2023/10/31 03:09:21;;;;;;;9.73;3.83;;;460.80;2380.80;;;;;;5074616;28;20115;-75
2023/10/31 03:11:47;;;;;;;6.13;2.58;;;460.80;2380.80;;;;;;5074286;28;20085;-75
2023/10/31 03:14:12;;;;;;;10.15;2.97;;;460.80;2380.80;;;;;;5074331;28;20038;-76
2023/10/31 03:16:38;;;;;;;8.60;3.53;;;460.80;2380.80;;;;;;5060871;28;20477;-76
2023/10/31 03:19:05;;;;;;;8.52;3.92;;;460.80;2380.80;;;;;;5074632;28;20027;-75
2023/10/31 03:21:30;;;;;;;6.10;2.72;;;436.10;2355.20;;;;;;5074124;28;20020;-76
2023/10/31 03:23:57;;;;;;;11.75;3.50;;;436.10;2355.20;;;;;;5074534;28;20111;-75
2023/10/31 03:26:22;;;;;;;9.55;3.05;;;436.00;2355.20;;;;;;5074326;28;20016;-75
2023/10/31 03:28:48;;;;;;;15.00;4.75;;;435.90;2355.20;;;;;;5074208;28;20089;-76
2023/10/31 03:31:15;;;;;;;13.13;4.30;;;435.90;2355.20;;;;;;5074004;28;20458;-75
2023/10/31 03:33:41;;;;;;;11.73;4.65;;;435.80;2355.20;;;;;;5074116;28;20028;-76
2023/10/31 03:36:08;;;;;;;9.23;4.95;;;435.80;2355.20;;;;;;5074194;28;20463;-75
2023/10/31 03:38:34;;;;;;;14.13;6.68;;;435.80;2355.20;;;;;;5073925;28;20028;-75
2023/10/31 03:41:01;;;;;;;11.48;8.02;;;435.80;2355.20;;;;;;5073651;28;20020;-75
2023/10/31 03:43:26;;;;;;;10.23;6.47;;;435.80;2355.20;;;;;;5073754;28;20048;-76
2023/10/31 03:45:52;;;;;;;11.20;6.43;;;435.90;2355.20;;;;;;5073727;28;20102;-75
2023/10/31 03:48:18;;;;;;;7.85;3.80;;;435.90;2355.20;;;;;;5073816;28;20574;-75
2023/10/31 03:50:44;;;;;;;7.13;3.20;;;436.00;2355.20;;;;;;5060025;28;20090;-75
2023/10/31 03:53:10;;;;;;;5.90;3.13;;;436.00;2355.20;;;;;;5093135;28;20079;-76
2023/10/31 03:55:36;;;;;;;9.05;2.95;;;436.00;2355.20;;;;;;5093668;28;20028;-75
2023/10/31 03:58:01;;;;;;;8.77;2.85;;;436.00;2355.20;;;;;;5093790;28;20024;-76
2023/10/31 04:00:27;;;;;;;14.43;2.95;;;436.00;2355.20;;;;;;5093531;28;20129;-75
2023/10/31 04:02:53;;;;;;;8.65;2.65;;;435.90;2355.20;;;;;;5093846;28;20024;-75
2023/10/31 04:05:19;;;;;;;9.48;3.75;;;435.90;2355.20;;;;;;5093876;28;20535;-75
2023/10/31 04:07:48;;;;;;;7.13;2.85;;;435.80;2355.20;;;;;;5093670;28;20060;-76
2023/10/31 04:10:14;;;;;;;10.20;3.33;;;435.80;2355.20;;;;;;5093622;28;20016;-76
2023/10/31 04:12:40;;;;;;;6.07;3.28;;;435.80;2355.20;;;;;;5093580;28;20069;-76
2023/10/31 04:15:07;;;;;;;4.88;2.45;;;435.70;2355.20;;;;;;5093819;28;20012;-76
2023/10/31 04:17:33;;;;;;;7.63;3.17;;;435.70;2355.20;;;;;;5081317;28;20048;-75
2023/10/31 04:19:58;;;;;;;6.88;3.08;;;435.70;2355.20;;;;;;5091835;28;20039;-74
2023/10/31 04:22:24;;;;;;;10.05;3.70;;;435.70;2355.20;;;;;;5081343;28;20025;-76
2023/10/31 04:24:50;;;;;;;10.80;3.20;;;435.70;2355.20;;;;;;5074198;28;20027;-75
2023/10/31 04:27:15;;;;;;;8.82;2.83;;;435.70;2355.20;;;;;;5093288;28;20032;-77
2023/10/31 04:29:41;;;;;;;8.98;3.58;;;435.70;2355.20;;;;;;5093500;28;20095;-76
2023/10/31 04:32:07;;;;;;;10.23;2.78;;;435.70;2355.20;;;;;;5093389;28;20545;-75
2023/10/31 04:34:33;;;;;;;9.23;3.17;;;435.70;2355.20;;;;;;5069227;28;20033;-75
2023/10/31 04:36:59;;;;;;;7.22;2.70;;;435.70;2355.20;;;;;;5085810;28;20024;-76
2023/10/31 04:39:24;;;;;;;8.40;3.55;;;435.70;2355.20;;;;;;5093125;28;20044;-76
2023/10/31 04:41:50;;;;;;;8.02;3.40;;;435.70;2355.20;;;;;;5093347;28;20028;-76
2023/10/31 04:44:16;;;;;;;8.65;3.47;;;435.70;2355.20;;;;;;5079716;28;20417;-75
2023/10/31 04:46:42;;;;;;;10.00;4.05;;;435.80;2355.20;;;;;;5092989;28;20026;-75
2023/10/31 04:49:08;;;;;;;6.13;3.13;;;435.80;2355.20;;;;;;5092594;28;20024;-76
2023/10/31 04:51:35;;;;;;;5.38;3.30;;;435.80;2355.20;;;;;;5092883;28;20504;-75
2023/10/31 04:54:01;;;;;;;7.07;2.92;;;435.70;2355.20;;;;;;5092925;28;20121;-76
2023/10/31 04:56:27;;;;;;;10.65;3.80;;;435.70;2355.20;;;;;;5092918;28;20052;-76
2023/10/31 04:58:53;;;;;;;11.38;4.25;;;435.60;2355.20;;;;;;5092908;28;20056;-76
2023/10/31 05:01:19;;;;;;;10.75;3.97;;;435.60;2355.20;;;;;;5074694;28;20043;-76
2023/10/31 05:03:45;;;;;;;7.82;3.40;;;435.60;2355.20;;;;;;5089875;28;20094;-75
2023/10/31 05:06:11;;;;;;;7.68;3.17;;;435.70;2355.20;;;;;;5092931;28;20158;-76
2023/10/31 05:08:36;;;;;;;6.55;3.10;;;435.70;2355.20;;;;;;5092381;28;20102;-75
2023/10/31 05:11:02;;;;;;;6.25;2.67;;;435.80;2355.20;;;;;;5092941;28;20517;-75
2023/10/31 05:13:28;;;;;;;7.20;2.95;;;435.80;2355.20;;;;;;5092754;28;20389;-76
2023/10/31 05:15:54;;;;;;;5.45;2.13;;;435.80;2355.20;;;;;;5092903;28;20387;-76
2023/10/31 05:18:20;;;;;;;11.10;3.03;;;435.70;2355.20;;;;;;5079270;28;20026;-75
2023/10/31 05:20:46;;;;;;;12.55;3.17;;;435.60;2355.20;;;;;;5092749;28;20529;-76
2023/10/31 05:23:12;;;;;;;9.50;2.83;;;435.60;2355.20;;;;;;5092510;28;20103;-75
2023/10/31 05:25:38;;;;;;;12.85;4.47;;;435.60;2355.20;;;;;;5092839;28;20020;-75
2023/10/31 05:28:04;;;;;;;11.30;3.30;;;435.60;2355.20;;;;;;5092222;28;20085;-75
2023/10/31 05:30:30;;;;;;;15.73;3.45;;;435.60;2355.20;;;;;;5092810;28;20024;-75
2023/10/31 05:32:56;;;;;;;9.18;3.03;;;435.60;2355.20;;;;;;5095420;28;20020;-75
2023/10/31 05:35:22;;;;;;;6.28;3.08;;;435.60;2355.20;;;;;;5096603;28;20047;-75
2023/10/31 05:37:47;;;;;;;7.90;3.55;;;435.60;2355.20;;;;;;5096089;28;20469;-75
2023/10/31 05:40:15;;;;;;;6.07;2.83;;;436.00;2355.20;;;;;;5066372;28;20047;-75
2023/10/31 05:42:42;;;;;;;8.70;3.42;;;435.70;2355.20;;;;;;5094992;28;20020;-76
2023/10/31 05:45:08;;;;;;;9.85;3.10;;;435.70;2355.20;;;;;;5084669;28;20028;-75
2023/10/31 05:47:34;;;;;;;11.30;3.55;;;435.70;2355.20;;;;;;5077581;28;20035;-76
2023/10/31 05:49:59;;;;;;;12.68;3.45;;;435.70;2355.20;;;;;;5085252;28;20082;-74
2023/10/31 05:52:29;;;;;;;9.88;4.32;;;435.60;2355.20;;;;;;5091549;28;20067;-74
2023/10/31 05:54:55;;;;;;;10.00;3.55;;;435.70;2355.20;;;;;;5088907;28;20016;-74
2023/10/31 05:57:21;;;;;;;10.32;3.70;;;435.70;2355.20;;;;;;5087997;28;20039;-77
2023/10/31 05:59:47;;;;;;;8.07;3.90;;;435.70;2355.20;;;;;;5088938;28;20359;-77
2023/10/31 06:02:14;;;;;;;6.05;3.38;;;435.70;2355.20;;;;;;5065752;28;20044;-76
2023/10/31 06:04:40;;;;;;;14.48;3.58;;;435.70;2355.20;;;;;;5067934;28;20025;-77
2023/10/31 06:07:06;;;;;;;10.02;3.42;;;435.70;2355.20;;;;;;5073800;28;20032;-74
2023/10/31 06:09:35;;;;;;;8.70;2.88;;;435.70;2355.20;;;;;;5087377;28;20393;-76
2023/10/31 06:12:01;;;;;;;8.77;2.47;;;435.70;2355.20;;;;;;5083477;28;20031;-76
2023/10/31 06:14:27;;;;;;;6.45;3.03;;;435.70;2355.20;;;;;;5090574;28;20028;-76
2023/10/31 06:16:53;;;;;;;7.50;2.35;;;435.70;2355.20;;;;;;5076858;28;20020;-76
2023/10/31 06:19:19;;;;;;;8.45;2.97;;;435.70;2355.20;;;;;;5077081;28;20012;-75
2023/10/31 06:21:44;;;;;;;9.95;3.08;;;435.80;2355.20;;;;;;5090650;28;20024;-74
2023/10/31 06:24:10;;;;;;;12.45;3.85;;;435.80;2355.20;;;;;;5084430;28;20020;-75
2023/10/31 06:26:36;;;;;;;11.88;2.88;;;435.80;2355.20;;;;;;5088005;28;20389;-75
2023/10/31 06:29:02;;;;;;;6.95;2.58;;;435.80;2355.20;;;;;;5082191;28;20069;-76
2023/10/31 06:31:27;;;;;;;9.45;3.33;;;435.80;2355.20;;;;;;5078069;28;20391;-74
2023/10/31 06:33:53;;;;;;;8.63;3.08;;;435.80;2355.20;;;;;;5081594;28;20029;-75
2023/10/31 06:36:19;;;;;;;8.90;2.88;;;435.80;2355.20;;;;;;5085232;28;20046;-75
2023/10/31 06:38:44;;;;;;;8.77;2.67;;;435.90;2355.20;;;;;;5085858;28;20118;-75
2023/10/31 06:41:10;;;;;;;6.72;2.88;;;436.00;2355.20;;;;;;5084465;28;20028;-74
2023/10/31 06:43:36;;;;;;;7.55;3.10;;;436.00;2355.20;;;;;;5067746;28;20020;-76
2023/10/31 06:46:04;;;;;;;5.60;2.45;;;436.10;2355.20;;;;;;5081542;28;20025;-76
2023/10/31 06:48:29;;;;;;;6.22;2.65;;;460.80;2380.80;;;;;;5069354;28;20044;-77
2023/10/31 06:50:55;;;;;;;6.93;2.30;;;460.80;2380.80;;;;;;5068855;28;20033;-76
2023/10/31 06:53:21;;;;;;;7.70;2.92;;;460.90;2380.80;;;;;;5085128;28;20123;-75
2023/10/31 06:55:47;;;;;;;8.50;3.28;;;461.00;2380.80;;;;;;5088269;28;20028;-76
2023/10/31 06:58:12;;;;;;;10.73;4.95;;;461.10;2380.80;;;;;;5090827;28;20020;-76
2023/10/31 07:00:38;;;;;;;8.45;4.47;;;461.10;2380.80;;;;;;5069038;28;20058;-77
2023/10/31 07:03:08;;;;;;;12.98;5.32;;;461.20;2380.80;;;;;;5059795;28;20024;-76
2023/10/31 07:05:35;;;;;;;14.25;4.80;;;461.30;2380.80;;;;;;5087698;28;20020;-76
2023/10/31 07:08:00;;;;;;;9.15;4.35;;;461.40;2380.80;;;;;;5069076;28;20036;-77
2023/10/31 07:10:26;;;;;;;11.20;3.70;;;461.30;2380.80;;;;;;5063413;28;20040;-77
2023/10/31 07:12:52;;;;;;;7.93;3.30;;;461.30;2380.80;;;;;;5063991;28;20434;-77
2023/10/31 07:15:17;;;;;;;6.85;2.90;;;461.20;2380.80;;;;;;5063309;28;20036;-76
2023/10/31 07:17:43;;;;;;;7.25;3.65;;;461.20;2380.80;;;;;;5066168;28;20055;-76
2023/10/31 07:20:09;;;;;;;9.75;3.03;;;461.30;2380.80;;;;;;5072145;28;20497;-76
2023/10/31 07:22:35;;;;;;;9.02;3.00;;;461.20;2380.80;;;;;;5090715;28;20126;-78
2023/10/31 07:25:03;;;;;;;8.80;2.50;;;461.20;2380.80;;;;;;5084509;28;20474;-77
2023/10/31 07:27:29;;;;;;;17.13;3.55;;;461.20;2380.80;;;;;;5079483;28;20101;-77
2023/10/31 07:29:55;;;;;;;9.43;3.17;;;461.20;2380.80;;;;;;5062553;28;20496;-77
2023/10/31 07:32:21;;;;;;;9.23;2.83;;;461.20;2380.80;;;;;;5085160;28;20032;-78
2023/10/31 07:34:46;;;;;;;9.10;3.03;;;461.30;2380.80;;;;;;5087149;28;20032;-77
2023/10/31 07:37:12;;;;;;;15.65;4.53;;;461.20;2380.80;;;;;;5083798;28;20906;-77
2023/10/31 07:39:38;;;;;;;15.50;3.38;;;461.20;2380.80;;;;;;5080263;28;20032;-77
2023/10/31 07:42:04;;;;;;;12.82;3.15;;;461.30;2380.80;;;;;;5077753;28;20028;-77
2023/10/31 07:44:30;;;;;;;19.75;2.97;;;461.40;2380.80;;;;;;5061242;28;20027;-77
2023/10/31 07:46:55;;;;;;;5.85;2.30;;;461.40;2380.80;;;;;;5078526;28;20020;-76
2023/10/31 07:49:21;;;;;;;11.02;2.75;;;461.50;2380.80;;;;;;5083557;28;20067;-75
2023/10/31 07:51:48;;;;;;;10.90;3.35;;;461.50;2380.80;;;;;;5085802;28;20502;-76
2023/10/31 07:54:15;;;;;;;8.00;2.65;;;461.50;2380.80;;;;;;5084270;28;20052;-77
2023/10/31 07:56:41;;;;;;;7.70;2.47;;;461.70;2380.80;;;;;;5071621;28;20078;-75
2023/10/31 07:59:08;;;;;;;7.35;2.22;;;461.70;2380.80;;;;;;5079770;28;20032;-75
2023/10/31 08:01:35;;;;;;;11.73;3.08;;;461.70;2380.80;;;;;;5072722;28;20058;-75
2023/10/31 08:04:01;;;;;;;7.93;3.13;;;461.70;2380.80;;;;;;5079693;28;20028;-76
2023/10/31 08:06:27;;;;;;;11.52;2.85;;;461.70;2380.80;;;;;;5067150;28;20127;-75
2023/10/31 08:08:53;;;;;;;9.45;2.80;;;461.70;2380.80;;;;;;5082722;28;20112;-75
2023/10/31 08:11:18;;;;;;;11.35;2.92;;;461.60;2380.80;;;;;;5083156;28;20027;-76
2023/10/31 08:13:44;;;;;;;10.02;3.67;;;461.50;2380.80;;;;;;5063730;28;20060;-75
2023/10/31 08:16:10;;;;;;;8.52;3.20;;;461.50;2380.80;;;;;;5074974;28;20028;-75
2023/10/31 08:18:36;;;;;;;16.67;3.13;;;461.50;2380.80;;;;;;5087692;28;20091;-75
2023/10/31 08:21:03;;;;;;;7.80;2.90;;;461.60;2380.80;;;;;;5082393;28;20056;-74
2023/10/31 08:23:29;;;;;;;8.13;2.67;;;461.60;2380.80;;;;;;5075653;28;20104;-75
2023/10/31 08:25:55;;;;;;;9.60;2.78;;;486.40;2380.80;;;;;;5077830;28;20116;-75
2023/10/31 08:28:21;;;;;;;12.40;3.33;;;486.50;2380.80;;;;;;5082584;28;20470;-75
2023/10/31 08:30:47;;;;;;;11.20;3.40;;;486.60;2380.80;;;;;;5082022;28;20032;-75
2023/10/31 08:33:13;;;;;;;6.55;3.13;;;486.60;2380.80;;;;;;5077379;28;20028;-75
2023/10/31 08:35:39;;;;;;;6.05;2.50;;;486.70;2380.80;;;;;;5077647;28;20044;-76
2023/10/31 08:38:05;;;;;;;10.07;3.03;;;486.80;2380.80;;;;;;5077919;28;20059;-76
2023/10/31 08:40:31;;;;;;;7.60;2.95;;;486.90;2380.80;;;;;;5073015;28;20413;-76
2023/10/31 08:42:57;;;;;;;10.95;3.08;;;487.00;2380.80;;;;;;5083504;28;20582;-76
2023/10/31 08:45:22;;;;;;;10.32;2.63;;;487.10;2380.80;;;;;;5078120;28;20050;-74
2023/10/31 08:47:48;;;;;;;14.00;3.40;;;487.20;2355.20;;;;;;5080752;28;20492;-75
2023/10/31 08:50:14;;;;;;;7.03;2.65;;;487.20;2355.20;;;;;;5081952;28;20024;-75
2023/10/31 08:52:40;;;;;;;6.07;3.15;;;487.30;2329.60;;;;;;5065460;28;20052;-75
2023/10/31 08:55:07;;;;;;;5.90;3.30;;;487.30;2329.60;;;;;;5081862;28;20024;-75
2023/10/31 08:57:33;;;;;;;12.77;3.05;;;487.30;2355.20;;;;;;5076238;28;20012;-74
2023/10/31 09:00:00;;;;;;;4.93;2.55;;;512.00;2304.00;;;;;;5088386;28;20019;-75
2023/10/31 09:02:26;;;;;;;6.30;2.85;;;512.00;2304.00;;;;;;5061626;28;20025;-75
2023/10/31 09:04:51;;;;;;;15.00;2.92;;;512.10;2304.00;;;;;;5057064;28;20035;-76
2023/10/31 09:07:17;;;;;;;8.77;3.53;;;512.10;2304.00;;;;;;5087201;28;20310;-76
2023/10/31 09:09:43;;;;;;;10.23;4.30;;;512.10;2278.40;;;;;;5074870;28;20474;-75
2023/10/31 09:12:09;;;;;;;9.13;3.05;;;512.20;2278.40;;;;;;5079488;28;20401;-74
2023/10/31 09:43:28;;;;;;;8.60;3.13;;;487.30;2278.40;;;;;;5130109;27;20379;-77
2023/10/31 09:45:56;;;;;;;7.50;3.35;;;512.70;2201.60;;;;;;5103665;28;20044;-76
2023/10/31 09:48:22;;;;;;;12.27;3.83;;;512.70;2201.60;;;;;;5098808;28;20092;-76
2023/10/31 09:50:49;;;;;;;14.50;4.10;;;512.60;2227.20;;;;;;5097739;28;20028;-75
2023/10/31 09:53:18;;;;;;;8.75;3.38;;;512.60;2227.20;;;;;;5098302;28;20028;-76
2023/10/31 09:55:45;;;;;;;7.90;3.30;;;512.50;2227.20;;;;;;5094504;28;20081;-76
2023/10/31 09:58:11;;;;;;;10.80;4.63;;;512.50;2201.60;;;;;;5095183;28;20101;-76
2023/10/31 10:00:40;;;;;;;13.75;3.45;;;512.50;2227.20;;;;;;5098183;28;20103;-76
2023/10/31 10:03:09;;;;;;;8.30;3.63;;;512.50;2201.60;;;;;;5097678;28;20101;-76
2023/10/31 10:05:36;;;;;;;11.98;4.45;;;512.50;2227.20;;;;;;5099576;28;20027;-76
2023/10/31 10:08:03;;;;;;;10.05;3.35;;;512.50;2201.60;;;;;;5098339;28;20556;-76
2023/10/31 10:10:30;;;;;;;13.98;4.80;;;512.50;2201.60;;;;;;5105001;28;20098;-76
2023/10/31 10:12:56;;;;;;;10.60;4.38;;;512.60;2201.60;;;;;;5101678;28;20047;-76
2023/10/31 10:15:22;;;;;;;8.93;4.70;;;512.60;2176.00;;;;;;5097961;28;20073;-75
2023/10/31 10:17:51;;;;;;;8.45;4.25;;;512.60;2150.40;;;;;;5095268;28;20489;-76
2023/10/31 10:20:18;;;;;;;12.68;4.68;;;512.70;2150.40;;;;;;5098571;28;20417;-75
2023/10/31 10:22:44;;;;;;;11.23;3.92;;;512.80;2124.80;;;;;;5094488;28;20034;-76
2023/10/31 10:25:14;;;;;;;9.35;4.85;;;512.90;2099.20;;;;;;5104647;28;20124;-75
2023/10/31 10:27:40;;;;;;;8.45;3.50;;;512.90;2124.80;;;;;;5093789;28;20043;-75
2023/10/31 10:30:09;;;;;;;7.80;3.53;;;537.60;2099.20;;;;;;5097714;28;20020;-81
2023/10/31 10:32:35;;;;;;;5.80;2.70;;;537.60;2099.20;;;;;;5097628;28;20507;-75
2023/10/31 10:35:01;;;;;;;9.88;3.38;;;537.70;2073.60;;;;;;5097745;28;20037;-75
2023/10/31 10:37:27;;;;;;;7.70;2.60;;;537.80;2022.40;;;;;;5103057;28;20089;-75
2023/10/31 10:39:57;;;;;;;9.32;3.10;;;537.80;2022.40;;;;;;5095932;28;20028;-77
2023/10/31 10:42:35;;;;;;;5.85;2.67;;;537.90;1971.20;;;;;;5096228;28;20135;-76
2023/10/31 10:45:05;;;;;;;10.05;3.05;;;538.00;1945.60;;;;;;5092190;28;20031;-75
2023/10/31 10:47:37;;;;;;;6.95;2.53;;;538.00;1920.00;;;;;;5087492;28;20166;-75
2023/10/31 10:50:06;;;;;;;5.28;2.33;;;538.00;1920.00;;;;;;5078311;28;20493;-75
2023/10/31 10:53:00;;;;;;;6.15;2.55;;;538.10;1894.40;;;;;;5085329;28;20036;-75
2023/10/31 10:55:28;;;;;;;6.50;2.55;;;538.10;1868.80;;;;;;5077758;28;20122;-73
2023/10/31 10:58:12;;;;;;;8.05;3.17;;;538.20;1868.80;;;;;;5088690;28;20020;-74
2023/10/31 11:00:39;;;;;;;11.60;2.97;;;538.20;1868.80;;;;;;5086971;28;20107;-74
2023/10/31 11:03:06;;;;;;;8.73;3.03;;;538.20;1894.40;;;;;;5081814;28;20401;-76
2023/10/31 11:05:33;;;;;;;8.02;2.92;;;538.20;1868.80;;;;;;5083826;28;20023;-76
2023/10/31 11:08:00;;;;;;;8.68;3.22;;;538.20;1868.80;;;;;;5084206;28;20025;-75
2023/10/31 11:10:27;;;;;;;9.85;3.30;;;538.30;1894.40;;;;;;5082181;28;20020;-75
2023/10/31 11:12:53;;;;;;;7.85;3.47;;;538.30;1868.80;;;;;;5083714;28;20043;-75
2023/10/31 11:15:19;;;;;;;9.57;4.13;;;538.30;1868.80;;;;;;5093218;28;20020;-75
2023/10/31 11:17:47;;;;;;;11.15;5.50;;;538.30;1843.20;;;;;;5086045;28;20020;-75
2023/10/31 11:20:15;;;;;;;9.98;4.07;;;538.40;1843.20;;;;;;5080414;28;20025;-75
2023/10/31 11:22:45;;;;;;;10.60;4.97;;;538.40;1843.20;;;;;;5088710;28;20024;-75
2023/10/31 11:25:20;;;;;;;16.77;5.28;;;538.50;1843.20;;;;;;5083636;28;20032;-75
2023/10/31 11:27:45;;;;;;;11.50;4.72;;;538.50;1868.80;;;;;;5079897;28;20516;-75
2023/10/31 11:30:21;;;;;;;12.05;4.50;;;538.50;1843.20;;;;;;5080267;28;20071;-74
2023/10/31 11:32:52;;;;;;;7.93;4.00;;;563.20;1868.80;;;;;;5085831;28;20401;-75
2023/10/31 11:35:18;;;;;;;7.90;4.57;;;563.30;1843.20;;;;;;5084275;28;20405;-75
2023/10/31 11:37:47;;;;;;;9.13;3.67;;;563.40;1868.80;;;;;;5087867;28;20381;-75
2023/10/31 11:40:13;;;;;;;9.88;3.75;;;563.50;1843.20;;;;;;5079650;28;20047;-76
2023/10/31 11:42:41;;;;;;;11.10;3.45;;;563.60;1843.20;;;;;;5082263;28;20040;-74
2023/10/31 11:45:08;;;;;;;8.65;3.58;;;563.70;1817.60;;;;;;5081547;28;20054;-75
2023/10/31 11:47:50;;;;;;;9.77;3.25;;;563.80;1817.60;;;;;;5082597;28;20112;-75
2023/10/31 11:50:17;;;;;;;9.60;4.22;;;563.90;1792.00;;;;;;5082488;28;20041;-74
2023/10/31 11:52:43;;;;;;;7.85;3.38;;;564.00;1792.00;;;;;;5082034;28;20127;-75
2023/10/31 11:55:10;;;;;;;8.50;3.20;;;564.10;1766.40;;;;;;5080551;28;20101;-75
2023/10/31 11:57:37;;;;;;;6.15;3.05;;;588.90;1766.40;;;;;;5082466;28;20063;-76
2023/10/31 12:00:04;;;;;;;6.00;3.42;;;589.00;1766.40;;;;;;5089045;28;20120;-75
2023/10/31 12:02:30;;;;;;;7.97;3.50;;;589.10;1740.80;;;;;;5085252;28;20521;-75
2023/10/31 12:05:13;;;;;;;6.78;3.42;;;589.30;1740.80;;;;;;5088427;28;20116;-74
2023/10/31 12:07:46;;;;;;;18.63;4.43;;;589.50;1689.60;;;;;;5083424;28;20485;-74
2023/10/31 12:10:22;;;;;;;9.60;3.38;;;589.70;1715.20;;;;;;5082709;28;20032;-74
2023/10/31 12:12:47;;;;;;;10.25;3.33;;;589.60;1689.60;;;;;;5079209;28;20044;-75
2023/10/31 12:15:13;;;;;;;10.77;3.78;;;589.50;1664.00;;;;;;5079826;28;20032;-74
2023/10/31 12:17:40;;;;;;;8.73;3.00;;;589.60;1689.60;;;;;;5083889;28;20016;-75
2023/10/31 12:20:07;;;;;;;8.05;3.10;;;614.40;1664.00;;;;;;5088959;28;20044;-75
2023/10/31 12:22:33;;;;;;;11.40;3.40;;;614.40;1612.80;;;;;;5077846;28;20030;-77
2023/10/31 12:25:04;;;;;;;9.35;3.70;;;589.70;1638.40;;;;;;5080724;28;20040;-75
2023/10/31 12:27:43;;;;;;;8.50;3.53;;;589.60;1664.00;;;;;;5082182;28;20024;-74
2023/10/31 12:30:09;;;;;;;9.05;3.55;;;589.50;1638.40;;;;;;5083504;28;20384;-74
2023/10/31 12:32:35;;;;;;;9.30;3.85;;;589.50;1664.00;;;;;;5080683;28;20040;-74
2023/10/31 12:35:01;;;;;;;6.43;3.67;;;589.40;1664.00;;;;;;5080886;28;20123;-74
2023/10/31 12:37:27;;;;;;;8.60;3.58;;;589.30;1664.00;;;;;;5085179;28;20385;-75
2023/10/31 12:39:52;;;;;;;10.32;3.92;;;589.30;1664.00;;;;;;5080489;28;20103;-75